createdAt,value
2019-02-09T00:01:01.570Z,4.93
2019-02-09T00:03:30.172Z,0.90
2019-02-09T00:06:04.983Z,1.27
2019-02-09T00:08:33.584Z,2.07
2019-02-09T00:11:02.184Z,1.13
2019-02-09T00:13:30.901Z,1.35
2019-02-09T00:15:59.718Z,1.40
2019-02-09T00:18:28.312Z,1.50
2019-02-09T00:20:56.911Z,1.40
2019-02-09T00:23:25.611Z,0.90
2019-02-09T00:25:54.331Z,2.10
2019-02-09T00:28:22.928Z,2.17
2019-02-09T00:30:51.507Z,1.40
2019-02-09T00:33:20.095Z,2.30
2019-02-09T00:35:48.756Z,2.33
2019-02-09T00:38:17.338Z,1.67
2019-02-09T00:40:45.926Z,2.40
2019-02-09T00:43:14.888Z,3.07
2019-02-09T00:45:43.479Z,1.37
2019-02-09T00:48:12.061Z,2.17
2019-02-09T00:50:40.627Z,4.33
2019-02-09T00:53:10.616Z,1.37
2019-02-09T00:55:39.195Z,1.87
2019-02-09T00:58:08.972Z,1.40
2019-02-09T01:00:37.613Z,1.60
2019-02-09T01:03:06.239Z,1.27
2019-02-09T01:05:37.414Z,1.30
2019-02-09T01:08:06.152Z,1.60
2019-02-09T01:10:34.816Z,1.87
2019-02-09T01:13:03.450Z,2.23
2019-02-09T01:15:32.062Z,1.67
2019-02-09T01:18:00.650Z,1.30
2019-02-09T01:20:29.333Z,1.13
2019-02-09T01:22:57.949Z,1.30
2019-02-09T01:25:26.632Z,1.33
2019-02-09T01:27:55.312Z,1.70
2019-02-09T01:30:24.826Z,2.07
2019-02-09T01:32:53.538Z,1.77
2019-02-09T01:35:22.191Z,1.60
2019-02-09T01:37:51.542Z,1.95
2019-02-09T01:40:24.984Z,2.13
2019-02-09T01:42:53.641Z,1.60
2019-02-09T01:45:29.812Z,1.97
2019-02-09T01:47:58.458Z,2.53
2019-02-09T01:50:28.527Z,1.83
2019-02-09T01:52:57.132Z,1.53
2019-02-09T01:55:27.429Z,2.40
2019-02-09T01:57:56.026Z,2.70
2019-02-09T02:00:27.784Z,2.20
2019-02-09T02:02:56.409Z,3.10
2019-02-09T02:05:25.605Z,2.27
2019-02-09T02:07:54.408Z,2.33
2019-02-09T02:10:25.500Z,2.27
2019-02-09T02:12:54.249Z,1.80
2019-02-09T02:15:22.830Z,2.07
2019-02-09T02:17:51.412Z,2.10
2019-02-09T02:20:21.748Z,2.43
2019-02-09T02:22:50.418Z,2.17
2019-02-09T02:25:19.055Z,3.43
2019-02-09T02:27:47.699Z,1.90
2019-02-09T02:30:22.658Z,1.93
2019-02-09T02:32:51.556Z,1.73
2019-02-09T02:35:19.737Z,2.60
2019-02-09T02:37:48.346Z,1.73
2019-02-09T02:40:17.793Z,2.03
2019-02-09T02:42:46.427Z,1.90
2019-02-09T02:45:15.426Z,1.60
2019-02-09T02:47:44.037Z,1.83
2019-02-09T02:50:15.078Z,1.67
2019-02-09T02:52:43.779Z,1.73
2019-02-09T02:55:14.538Z,1.67
2019-02-09T02:57:43.197Z,2.10
2019-02-09T03:00:14.553Z,1.80
2019-02-09T03:02:43.151Z,2.53
2019-02-09T03:05:13.959Z,2.00
2019-02-09T03:07:42.558Z,1.70
2019-02-09T03:10:11.290Z,1.70
2019-02-09T03:12:39.904Z,1.70
2019-02-09T03:15:11.773Z,1.50
2019-02-09T03:17:40.404Z,1.63
2019-02-09T03:20:11.301Z,1.43
2019-02-09T03:22:39.953Z,1.60
2019-02-09T03:25:10.642Z,0.97
2019-02-09T03:27:39.294Z,1.47
2019-02-09T03:30:12.071Z,2.47
2019-02-09T03:32:44.581Z,2.00
2019-02-09T03:35:14.805Z,1.60
2019-02-09T03:37:43.566Z,1.43
2019-02-09T03:40:14.334Z,1.30
2019-02-09T03:42:42.972Z,1.63
2019-02-09T03:45:17.881Z,1.30
2019-02-09T03:47:46.690Z,1.67
2019-02-09T03:50:15.611Z,1.57
2019-02-09T03:52:44.192Z,1.03
2019-02-09T03:55:12.830Z,2.10
2019-02-09T03:57:41.468Z,1.67
2019-02-09T04:00:15.427Z,1.60
2019-02-09T04:02:44.026Z,1.50
2019-02-09T04:05:12.614Z,1.50
2019-02-09T04:07:41.310Z,1.30
2019-02-09T04:10:11.292Z,1.53
2019-02-09T04:12:39.997Z,1.70
2019-02-09T04:15:09.403Z,1.80
2019-02-09T04:17:38.008Z,2.00
2019-02-09T04:20:08.308Z,1.70
2019-02-09T04:22:36.933Z,1.77
2019-02-09T04:25:06.155Z,1.80
2019-02-09T04:27:34.762Z,1.80
2019-02-09T04:30:03.403Z,2.87
2019-02-09T04:32:32.078Z,2.10
2019-02-09T04:35:00.676Z,2.10
2019-02-09T04:37:29.252Z,2.80
2019-02-09T04:39:57.834Z,2.30
2019-02-09T04:42:26.435Z,2.47
2019-02-09T04:44:55.030Z,2.77
2019-02-09T04:47:23.597Z,2.37
2019-02-09T04:49:52.196Z,2.27
2019-02-09T04:52:20.827Z,1.57
2019-02-09T04:54:49.413Z,2.03
2019-02-09T04:57:18.033Z,1.83
2019-02-09T04:59:46.717Z,2.03
2019-02-09T05:02:15.349Z,1.40
2019-02-09T05:04:43.997Z,1.57
2019-02-09T05:07:12.603Z,1.20
2019-02-09T05:09:41.201Z,1.00
2019-02-09T05:12:09.880Z,1.32
2019-02-09T05:14:38.554Z,1.03
2019-02-09T05:17:07.147Z,0.73
2019-02-09T05:19:35.732Z,0.77
2019-02-09T05:22:04.315Z,0.50
2019-02-09T05:24:32.950Z,0.43
2019-02-09T05:27:01.551Z,0.63
2019-02-09T05:29:30.632Z,0.40
2019-02-09T05:31:59.242Z,0.30
2019-02-09T05:34:27.836Z,0.50
2019-02-09T05:36:56.460Z,0.50
2019-02-09T05:39:25.256Z,0.90
2019-02-09T05:41:53.854Z,0.40
2019-02-09T05:44:22.484Z,0.40
2019-02-09T05:46:51.130Z,0.90
2019-02-09T05:49:20.493Z,0.50
2019-02-09T05:51:50.569Z,0.67
2019-02-09T05:54:19.223Z,0.40
2019-02-09T05:56:47.823Z,0.93
2019-02-09T05:59:16.420Z,0.63
2019-02-09T06:01:44.986Z,0.97
2019-02-09T06:04:13.686Z,0.90
2019-02-09T06:06:42.278Z,0.80
2019-02-09T06:09:11.074Z,0.93
2019-02-09T06:11:39.683Z,0.53
2019-02-09T06:14:08.315Z,1.07
2019-02-09T06:16:36.918Z,0.63
2019-02-09T06:19:05.519Z,0.70
2019-02-09T06:21:34.108Z,0.60
2019-02-09T06:24:02.663Z,0.67
2019-02-09T06:26:31.252Z,0.93
2019-02-09T06:28:59.873Z,0.90
2019-02-09T06:31:28.478Z,0.90
2019-02-09T06:33:57.087Z,0.90
2019-02-09T06:36:25.684Z,1.13
2019-02-09T06:38:54.340Z,1.10
2019-02-09T06:41:22.994Z,0.93
2019-02-09T06:43:51.636Z,1.03
2019-02-09T06:46:20.207Z,1.13
2019-02-09T06:48:48.805Z,1.37
2019-02-09T06:51:17.406Z,0.87
2019-02-09T06:53:46.401Z,1.03
2019-02-09T06:56:14.972Z,0.70
2019-02-09T06:58:43.623Z,0.90
2019-02-09T07:01:12.235Z,1.33
2019-02-09T07:03:41.654Z,0.97
2019-02-09T07:06:10.345Z,1.00
2019-02-09T07:08:39.494Z,1.00
2019-02-09T07:11:08.081Z,0.90
2019-02-09T07:13:36.710Z,0.70
2019-02-09T07:16:05.559Z,1.37
2019-02-09T07:18:34.161Z,1.20
2019-02-09T07:21:02.809Z,0.80
2019-02-09T07:23:31.390Z,0.73
2019-02-09T07:26:00.099Z,0.60
2019-02-09T07:28:28.729Z,0.97
2019-02-09T07:30:57.336Z,1.00
2019-02-09T07:33:25.936Z,0.88
2019-02-09T07:35:54.548Z,1.00
2019-02-09T07:38:23.132Z,0.97
2019-02-09T07:40:51.720Z,1.00
2019-02-09T07:43:20.349Z,1.00
2019-02-09T07:45:48.962Z,1.30
2019-02-09T07:48:17.534Z,1.77
2019-02-09T07:50:46.664Z,1.10
2019-02-09T07:53:15.273Z,1.37
2019-02-09T07:55:43.887Z,1.27
2019-02-09T07:58:12.499Z,1.87
2019-02-09T08:00:41.317Z,0.65
2019-02-09T08:03:09.933Z,2.43
2019-02-09T08:05:38.592Z,0.90
2019-02-09T08:08:07.233Z,1.10
2019-02-09T08:10:35.944Z,0.90
2019-02-09T08:13:04.562Z,0.80
2019-02-09T08:15:34.230Z,1.02
2019-02-09T08:18:02.874Z,0.87
2019-02-09T08:20:31.518Z,0.70
2019-02-09T08:23:01.250Z,0.97
2019-02-09T08:25:31.624Z,1.47
2019-02-09T08:28:00.303Z,0.80
2019-02-09T08:30:37.433Z,0.83
2019-02-09T08:33:06.073Z,1.03
2019-02-09T08:35:34.695Z,1.07
2019-02-09T08:38:03.345Z,1.20
2019-02-09T08:40:32.048Z,0.90
2019-02-09T08:43:00.641Z,1.10
2019-02-09T08:45:29.235Z,0.70
2019-02-09T08:47:57.820Z,1.53
2019-02-09T08:50:29.126Z,1.27
2019-02-09T08:52:57.758Z,1.50
2019-02-09T08:55:26.447Z,1.50
2019-02-09T08:57:55.156Z,1.07
2019-02-09T09:00:25.541Z,1.77
2019-02-09T09:02:54.133Z,1.20
2019-02-09T09:05:23.704Z,1.10
2019-02-09T09:07:52.879Z,0.90
2019-02-09T09:10:22.566Z,1.10
2019-02-09T09:12:51.168Z,1.00
2019-02-09T09:15:23.044Z,1.27
2019-02-09T09:17:51.641Z,1.30
2019-02-09T09:20:23.062Z,1.00
2019-02-09T09:22:51.652Z,1.50
2019-02-09T09:25:20.279Z,1.23
2019-02-09T09:27:48.944Z,1.37
2019-02-09T09:30:19.514Z,2.13
2019-02-09T09:32:49.363Z,1.20
2019-02-09T09:35:17.970Z,1.77
2019-02-09T09:37:46.558Z,2.23
2019-02-09T09:40:30.210Z,1.93
2019-02-09T09:42:58.903Z,1.30
2019-02-09T09:45:29.399Z,1.37
2019-02-09T09:47:58.015Z,1.37
2019-02-09T09:50:28.741Z,2.43
2019-02-09T09:52:57.406Z,1.50
2019-02-09T09:55:25.986Z,2.00
2019-02-09T09:57:56.086Z,1.20
2019-02-09T10:00:25.070Z,1.80
2019-02-09T10:02:53.679Z,1.63
2019-02-09T10:05:22.386Z,1.13
2019-02-09T10:07:51.060Z,1.57
2019-02-09T10:10:19.687Z,1.67
2019-02-09T10:12:48.489Z,1.57
2019-02-09T10:15:19.015Z,1.17
2019-02-09T10:17:47.725Z,2.27
2019-02-09T10:20:18.351Z,2.00
2019-02-09T10:22:47.045Z,2.33
2019-02-09T10:25:15.721Z,1.53
2019-02-09T10:27:44.364Z,2.03
2019-02-09T10:30:15.217Z,1.43
2019-02-09T10:32:44.720Z,2.20
2019-02-09T10:35:13.871Z,1.67
2019-02-09T10:37:42.514Z,1.53
2019-02-09T10:40:13.996Z,2.00
2019-02-09T10:42:42.580Z,1.83
2019-02-09T10:45:13.713Z,1.50
2019-02-09T10:47:42.287Z,2.33
2019-02-09T10:50:15.519Z,1.67
2019-02-09T10:52:44.201Z,1.77
2019-02-09T10:55:12.917Z,1.70
2019-02-09T10:57:41.562Z,1.60
2019-02-09T11:00:14.968Z,1.40
2019-02-09T11:02:43.597Z,1.80
2019-02-09T11:05:12.304Z,1.93
2019-02-09T11:07:40.954Z,1.47
2019-02-09T11:10:11.243Z,1.53
2019-02-09T11:12:39.902Z,2.27
2019-02-09T11:15:10.479Z,1.77
2019-02-09T11:17:39.045Z,1.83
2019-02-09T11:20:09.666Z,2.20
2019-02-09T11:22:38.268Z,1.67
2019-02-09T11:25:07.931Z,1.77
2019-02-09T11:27:36.535Z,1.50
2019-02-09T11:30:07.249Z,1.73
2019-02-09T11:32:35.912Z,2.03
2019-02-09T11:35:04.911Z,2.33
2019-02-09T11:37:33.505Z,2.70
2019-02-09T11:40:02.124Z,2.10
2019-02-09T11:42:30.824Z,1.73
2019-02-09T11:44:59.463Z,2.43
2019-02-09T11:47:28.235Z,1.87
2019-02-09T11:49:56.797Z,1.70
2019-02-09T11:52:25.415Z,1.87
2019-02-09T11:54:53.996Z,2.53
2019-02-09T11:57:22.646Z,2.03
2019-02-09T11:59:51.267Z,1.27
2019-02-09T12:02:19.883Z,2.23
2019-02-09T12:04:48.571Z,1.90
2019-02-09T12:07:17.174Z,2.45
2019-02-09T12:09:45.842Z,1.60
2019-02-09T12:12:14.581Z,1.13
2019-02-09T12:14:43.214Z,1.47
2019-02-09T12:17:11.863Z,1.70
2019-02-09T12:19:40.567Z,1.47
2019-02-09T12:22:09.162Z,2.17
2019-02-09T12:24:37.770Z,1.77
2019-02-09T12:27:06.420Z,1.03
2019-02-09T12:29:35.013Z,1.20
2019-02-09T12:32:03.706Z,0.77
2019-02-09T12:34:32.338Z,0.80
2019-02-09T12:37:00.934Z,0.97
2019-02-09T12:39:29.585Z,0.87
2019-02-09T12:41:58.289Z,1.33
2019-02-09T12:44:27.232Z,1.43
2019-02-09T12:46:55.826Z,1.53
2019-02-09T12:49:24.452Z,1.23
2019-02-09T12:51:53.052Z,1.50
2019-02-09T12:54:21.704Z,1.10
2019-02-09T12:56:50.330Z,1.40
2019-02-09T12:59:18.909Z,2.10
2019-02-09T13:01:47.514Z,1.70
2019-02-09T13:04:16.146Z,1.60
2019-02-09T13:06:44.772Z,1.40
2019-02-09T13:09:13.466Z,1.50
2019-02-09T13:11:42.125Z,1.90
2019-02-09T13:14:10.691Z,2.27
2019-02-09T13:16:39.315Z,1.90
2019-02-09T13:19:07.933Z,1.87
2019-02-09T13:21:36.643Z,1.40
2019-02-09T13:24:05.688Z,1.10
2019-02-09T13:26:34.376Z,2.60
2019-02-09T13:29:02.951Z,1.20
2019-02-09T13:31:31.538Z,1.40
2019-02-09T13:34:00.155Z,2.07
2019-02-09T13:36:28.729Z,1.97
2019-02-09T13:38:57.417Z,2.77
2019-02-09T13:41:26.088Z,1.93
2019-02-09T13:43:54.736Z,2.47
2019-02-09T13:46:23.343Z,2.20
2019-02-09T13:48:52.014Z,2.87
2019-02-09T13:51:20.659Z,2.00
2019-02-09T13:53:49.514Z,2.27
2019-02-09T13:56:18.189Z,1.87
2019-02-09T13:58:46.778Z,2.17
2019-02-09T14:01:15.448Z,1.53
2019-02-09T14:03:50.964Z,2.47
2019-02-09T14:06:19.715Z,1.43
2019-02-09T14:08:48.300Z,1.90
2019-02-09T14:11:17.047Z,1.83
2019-02-09T14:13:45.648Z,2.07
2019-02-09T14:16:14.257Z,1.60
2019-02-09T14:18:42.888Z,2.70
2019-02-09T14:21:11.509Z,1.70
2019-02-09T14:23:40.122Z,2.30
2019-02-09T14:26:08.734Z,1.90
2019-02-09T14:28:38.334Z,1.63
2019-02-09T14:31:06.949Z,2.20
2019-02-09T14:33:35.662Z,1.57
2019-02-09T14:36:04.378Z,0.90
2019-02-09T14:38:32.979Z,1.80
2019-02-09T14:41:01.559Z,1.47
2019-02-09T14:43:30.158Z,1.63
2019-02-09T14:45:58.824Z,1.67
2019-02-09T14:48:27.437Z,1.80
2019-02-09T14:50:56.021Z,1.47
2019-02-09T14:53:24.724Z,1.20
2019-02-09T14:55:53.548Z,1.33
2019-02-09T14:58:22.160Z,2.13
2019-02-09T15:00:52.693Z,2.27
2019-02-09T15:03:26.925Z,2.37
2019-02-09T15:05:51.652Z,1.33
2019-02-09T15:08:20.276Z,1.67
2019-02-09T15:10:48.970Z,1.63
2019-02-09T15:13:17.540Z,2.07
2019-02-09T15:16:09.536Z,1.90
2019-02-09T15:18:38.254Z,1.50
2019-02-09T15:21:06.921Z,1.57
2019-02-09T15:23:35.565Z,1.80
2019-02-09T15:26:04.275Z,1.43
2019-02-09T15:28:32.865Z,2.77
2019-02-09T15:31:01.490Z,1.57
2019-02-09T15:33:30.200Z,1.83
2019-02-09T15:35:58.681Z,1.40
2019-02-09T15:38:27.296Z,1.60
2019-02-09T15:40:55.923Z,1.73
2019-02-09T15:43:24.559Z,1.63
2019-02-09T15:45:53.192Z,1.53
2019-02-09T15:48:22.488Z,1.73
2019-02-09T15:50:51.212Z,1.60
2019-02-09T15:53:19.812Z,1.33
2019-02-09T15:55:48.413Z,2.00
2019-02-09T15:58:17.033Z,1.97
2019-02-09T16:00:45.754Z,1.87
2019-02-09T16:03:14.383Z,1.60
2019-02-09T16:05:43.024Z,2.00
2019-02-09T16:08:11.641Z,1.63
2019-02-09T16:10:40.272Z,2.00
2019-02-09T16:13:08.884Z,1.20
2019-02-09T16:15:37.819Z,1.37
2019-02-09T16:18:06.438Z,1.10
2019-02-09T16:20:35.117Z,1.87
2019-02-09T16:23:03.810Z,1.93
2019-02-09T16:25:32.493Z,1.70
2019-02-09T16:28:01.115Z,1.90
2019-02-09T16:30:29.688Z,2.10
2019-02-09T16:32:58.575Z,1.73
2019-02-09T16:35:28.951Z,1.83
2019-02-09T16:37:57.543Z,1.63
2019-02-09T16:40:27.456Z,1.47
2019-02-09T16:42:56.182Z,1.73
2019-02-09T16:45:26.941Z,1.17
2019-02-09T16:47:55.636Z,1.67
2019-02-09T16:50:24.342Z,2.30
2019-02-09T16:52:53.398Z,1.70
2019-02-09T16:55:22.182Z,1.60
2019-02-09T16:57:50.884Z,1.47
2019-02-09T17:00:31.485Z,2.27
2019-02-09T17:03:00.316Z,2.77
2019-02-09T17:05:28.913Z,1.93
2019-02-09T17:07:57.827Z,2.27
2019-02-09T17:10:26.386Z,2.23
2019-02-09T17:12:54.985Z,1.93
2019-02-09T17:15:25.058Z,2.47
2019-02-09T17:17:53.946Z,2.33
2019-02-09T17:20:22.543Z,1.33
2019-02-09T17:22:51.798Z,2.30
2019-02-09T17:25:20.482Z,1.33
2019-02-09T17:27:49.749Z,2.47
2019-02-09T17:30:23.263Z,2.27
2019-02-09T17:32:51.902Z,2.93
2019-02-09T17:35:20.542Z,2.00
2019-02-09T17:37:49.397Z,1.40
2019-02-09T17:40:23.488Z,2.80
2019-02-09T17:42:53.262Z,2.47
2019-02-09T17:45:25.088Z,3.17
2019-02-09T17:47:53.883Z,3.20
2019-02-09T17:50:22.611Z,3.00
2019-02-09T17:52:51.488Z,2.27
2019-02-09T17:55:20.222Z,2.63
2019-02-09T17:57:49.065Z,2.17
2019-02-09T18:00:21.079Z,2.17
2019-02-09T18:02:49.819Z,2.20
2019-02-09T18:05:18.529Z,2.73
2019-02-09T18:07:47.224Z,3.37
2019-02-09T18:10:16.395Z,2.33
2019-02-09T18:12:45.100Z,2.17
2019-02-09T18:15:15.172Z,2.23
2019-02-09T18:17:44.263Z,2.40
2019-02-09T18:20:13.994Z,2.43
2019-02-09T18:22:42.651Z,2.20
2019-02-09T18:25:12.843Z,2.97
2019-02-09T18:27:41.606Z,2.60
2019-02-09T18:30:13.650Z,2.70
2019-02-09T18:32:42.264Z,2.30
2019-02-09T18:35:10.893Z,2.20
2019-02-09T18:37:39.548Z,2.30
2019-02-09T18:40:10.623Z,2.57
2019-02-09T18:42:39.245Z,2.20
2019-02-09T18:45:08.725Z,2.50
2019-02-09T18:47:37.372Z,2.63
2019-02-09T18:50:06.586Z,2.40
2019-02-09T18:52:35.210Z,4.07
2019-02-09T18:55:04.019Z,2.60
2019-02-09T18:57:32.655Z,2.70
2019-02-09T19:00:01.279Z,2.53
2019-02-09T19:02:30.029Z,2.63
2019-02-09T19:05:04.195Z,4.03
2019-02-09T19:07:28.974Z,2.53
2019-02-09T19:09:57.612Z,3.27
2019-02-09T19:12:26.279Z,3.07
2019-02-09T19:14:54.937Z,2.77
2019-02-09T19:17:23.626Z,2.00
2019-02-09T19:19:52.256Z,2.33
2019-02-09T19:22:20.875Z,1.70
2019-02-09T19:24:49.488Z,2.40
2019-02-09T19:27:18.114Z,2.97
2019-02-09T19:29:46.811Z,3.10
2019-02-09T19:32:15.437Z,3.73
2019-02-09T19:34:44.175Z,3.67
2019-02-09T19:37:12.866Z,1.87
2019-02-09T19:39:41.567Z,4.13
2019-02-09T19:42:10.190Z,2.17
2019-02-09T19:44:38.790Z,3.33
2019-02-09T19:47:07.401Z,2.70
2019-02-09T19:49:36.024Z,2.57
2019-02-09T19:52:04.664Z,3.03
2019-02-09T19:54:33.284Z,3.57
2019-02-09T19:57:01.925Z,2.53
2019-02-09T19:59:30.527Z,2.87
2019-02-09T20:01:59.112Z,3.90
2019-02-09T20:04:27.770Z,3.17
2019-02-09T20:06:56.381Z,2.40
2019-02-09T20:09:25.058Z,3.17
2019-02-09T20:11:53.666Z,4.00
2019-02-09T20:14:22.352Z,3.67
2019-02-09T20:16:50.973Z,2.80
2019-02-09T20:19:22.053Z,2.67
2019-02-09T20:21:50.630Z,3.00
2019-02-09T20:24:19.310Z,3.10
2019-02-09T20:26:48.011Z,2.57
2019-02-09T20:29:17.445Z,3.67
2019-02-09T20:31:46.033Z,3.23
2019-02-09T20:34:14.593Z,2.43
2019-02-09T20:36:43.276Z,3.20
2019-02-09T20:39:11.914Z,3.20
2019-02-09T20:41:40.655Z,2.58
2019-02-09T20:44:09.359Z,2.13
2019-02-09T20:46:37.993Z,2.90
2019-02-09T20:49:06.673Z,2.90
2019-02-09T20:51:35.328Z,2.67
2019-02-09T20:54:04.114Z,3.43
2019-02-09T20:56:32.756Z,3.73
2019-02-09T20:59:01.503Z,3.60
2019-02-09T21:01:30.108Z,3.13
2019-02-09T21:03:58.975Z,2.73
2019-02-09T21:06:27.587Z,2.73
2019-02-09T21:08:56.419Z,3.90
2019-02-09T21:11:25.046Z,2.77
2019-02-09T21:13:53.722Z,2.67
2019-02-09T21:16:22.305Z,3.92
2019-02-09T21:18:50.947Z,2.77
2019-02-09T21:21:19.556Z,2.70
2019-02-09T21:23:48.190Z,2.83
2019-02-09T21:26:16.815Z,3.33
2019-02-09T21:28:45.448Z,4.13
2019-02-09T21:31:14.065Z,3.53
2019-02-09T21:33:42.686Z,3.40
2019-02-09T21:36:30.569Z,5.03
2019-02-09T21:38:59.172Z,8.43
2019-02-09T21:41:27.917Z,5.00
2019-02-09T21:43:56.574Z,6.67
2019-02-09T21:46:25.201Z,4.43
2019-02-09T21:48:53.875Z,4.30
2019-02-09T21:51:22.779Z,4.23
2019-02-09T21:53:51.524Z,5.57
2019-02-09T21:56:20.122Z,4.53
2019-02-09T21:58:48.795Z,4.90
2019-02-09T22:01:17.397Z,4.23
2019-02-09T22:03:46.023Z,3.83
2019-02-09T22:06:14.642Z,2.67
2019-02-09T22:08:43.272Z,3.07
2019-02-09T22:11:12.301Z,2.63
2019-02-09T22:13:40.884Z,2.67
2019-02-09T22:16:09.507Z,3.13
2019-02-09T22:18:38.342Z,2.90
2019-02-09T22:21:06.958Z,3.17
2019-02-09T22:23:35.629Z,3.47
2019-02-09T22:26:05.333Z,3.80
2019-02-09T22:28:34.551Z,3.70
2019-02-09T22:31:03.146Z,3.60
2019-02-09T22:33:31.909Z,3.47
2019-02-09T22:36:00.570Z,3.33
2019-02-09T22:38:29.423Z,3.27
2019-02-09T22:40:58.049Z,2.20
2019-02-09T22:43:27.045Z,3.50
2019-02-09T22:45:55.656Z,3.33
2019-02-09T22:48:24.289Z,2.20
2019-02-09T22:50:52.973Z,3.03
2019-02-09T22:53:21.571Z,2.97
2019-02-09T22:55:50.243Z,2.60
2019-02-09T22:58:18.901Z,3.60
2019-02-09T23:01:20.353Z,3.17
2019-02-09T23:03:54.270Z,4.57
2019-02-09T23:06:41.605Z,3.20
2019-02-09T23:09:14.508Z,3.63
2019-02-09T23:11:43.592Z,3.03
2019-02-09T23:14:12.211Z,2.57
2019-02-09T23:16:40.944Z,3.07
2019-02-09T23:19:09.646Z,3.30
2019-02-09T23:21:38.221Z,3.40
2019-02-09T23:24:06.872Z,3.17
2019-02-09T23:26:35.452Z,2.40
2019-02-09T23:29:04.562Z,2.95
2019-02-09T23:31:33.205Z,3.50
2019-02-09T23:34:01.802Z,3.23
2019-02-09T23:36:30.515Z,2.20
2019-02-09T23:38:59.135Z,3.60
2019-02-09T23:41:27.814Z,2.87
2019-02-09T23:43:56.431Z,2.87
2019-02-09T23:46:25.006Z,2.43
2019-02-09T23:48:53.659Z,3.07
2019-02-09T23:51:22.255Z,2.73
2019-02-09T23:53:50.889Z,3.07
2019-02-09T23:56:20.031Z,2.40
2019-02-09T23:58:48.614Z,2.87
